Time;durP1;ratioP1;P1;durP2;ratioP2;P2;SDS_P1;SDS_P2;PMS_P1;PMS_P2;Temp;Humidity;BMP_temperature;BMP_pressure;BME280_temperature;BME280_humidity;BME280_pressure;Samples;Min_cycle;Max_cycle;Signal;HPM_P1;HPM_P2
2023/08/28 00:00:59;;;;;;;4.13;1.67;;;;;;;;;;5006981;28;20040;-63
2023/08/28 00:03:24;;;;;;;3.97;1.67;;;;;;;;;;5006513;28;20014;-65
2023/08/28 00:05:49;;;;;;;5.45;1.95;;;;;;;;;;5008053;28;20112;-66
2023/08/28 00:08:14;;;;;;;5.43;1.92;;;;;;;;;;5007230;28;20124;-67
2023/08/28 00:10:40;;;;;;;4.90;2.03;;;;;;;;;;5007883;28;20014;-66
2023/08/28 00:13:05;;;;;;;11.30;1.88;;;;;;;;;;5008816;28;20040;-66
2023/08/28 00:15:30;;;;;;;4.05;1.73;;;;;;;;;;5008488;28;20178;-67
2023/08/28 00:17:56;;;;;;;5.63;1.75;;;;;;;;;;5005534;28;20132;-68
2023/08/28 00:20:21;;;;;;;4.72;1.65;;;;;;;;;;5007839;28;20013;-66
2023/08/28 00:22:46;;;;;;;3.17;1.50;;;;;;;;;;5006704;28;20076;-63
2023/08/28 00:25:12;;;;;;;3.53;2.00;;;;;;;;;;5005898;28;20091;-67
2023/08/28 00:27:37;;;;;;;5.00;2.00;;;;;;;;;;5008150;28;20305;-64
2023/08/28 00:30:03;;;;;;;8.55;1.85;;;;;;;;;;5004525;28;20536;-66
2023/08/28 00:32:29;;;;;;;3.70;1.45;;;;;;;;;;5006190;28;20072;-66
2023/08/28 00:34:54;;;;;;;8.57;2.20;;;;;;;;;;5007816;28;20013;-65
2023/08/28 00:37:19;;;;;;;5.03;1.92;;;;;;;;;;5007783;28;20018;-66
2023/08/28 00:39:45;;;;;;;3.25;1.60;;;;;;;;;;5009119;28;20017;-66
2023/08/28 00:42:10;;;;;;;3.70;2.13;;;;;;;;;;5007388;28;20121;-66
2023/08/28 00:44:35;;;;;;;5.55;1.98;;;;;;;;;;5007369;28;20034;-64
2023/08/28 00:47:02;;;;;;;4.82;2.00;;;;;;;;;;5006753;28;20326;-67
2023/08/28 00:49:27;;;;;;;5.07;1.80;;;;;;;;;;5005988;28;20040;-66
2023/08/28 00:51:53;;;;;;;6.10;2.10;;;;;;;;;;5007968;28;20251;-67
2023/08/28 00:54:19;;;;;;;4.72;2.20;;;;;;;;;;5005719;28;20029;-64
2023/08/28 00:56:44;;;;;;;7.68;2.13;;;;;;;;;;5006694;28;20483;-66
2023/08/28 00:59:09;;;;;;;6.13;2.20;;;;;;;;;;5005581;28;20044;-65
2023/08/28 01:01:34;;;;;;;3.78;1.98;;;;;;;;;;5001658;28;20021;-65
2023/08/28 01:04:00;;;;;;;3.60;2.00;;;;;;;;;;5002659;28;20022;-65
2023/08/28 01:06:44;;;;;;;4.10;2.20;;;;;;;;;;5007277;28;20022;-62
2023/08/28 01:09:27;;;;;;;5.22;2.33;;;;;;;;;;5006375;28;20107;-65
2023/08/28 01:11:56;;;;;;;7.57;2.20;;;;;;;;;;4996974;28;20026;-64
2023/08/28 01:14:21;;;;;;;4.00;2.28;;;;;;;;;;5004524;28;20240;-64
2023/08/28 01:16:48;;;;;;;4.93;2.23;;;;;;;;;;5006277;28;20109;-67
2023/08/28 01:19:21;;;;;;;3.42;1.80;;;;;;;;;;5006553;28;20267;-65
2023/08/28 01:21:49;;;;;;;8.38;2.53;;;;;;;;;;5006930;28;20041;-65
2023/08/28 01:24:17;;;;;;;5.72;2.20;;;;;;;;;;5003284;28;20060;-62
2023/08/28 01:26:42;;;;;;;13.30;2.55;;;;;;;;;;5005989;28;20025;-64
2023/08/28 01:29:08;;;;;;;5.30;1.92;;;;;;;;;;5007412;28;20032;-65
2023/08/28 01:31:33;;;;;;;4.05;1.92;;;;;;;;;;5005975;28;20336;-65
2023/08/28 01:33:58;;;;;;;4.20;2.80;;;;;;;;;;4999914;28;20359;-64
2023/08/28 01:36:36;;;;;;;5.68;1.90;;;;;;;;;;5006795;28;20029;-65
2023/08/28 01:39:04;;;;;;;6.85;1.98;;;;;;;;;;5003240;28;20109;-66
2023/08/28 01:41:30;;;;;;;4.00;1.70;;;;;;;;;;5007227;28;20044;-66
2023/08/28 01:43:58;;;;;;;4.38;1.92;;;;;;;;;;5001765;28;20085;-64
2023/08/28 01:46:24;;;;;;;7.85;2.45;;;;;;;;;;5004989;28;20026;-63
2023/08/28 01:48:53;;;;;;;5.43;2.10;;;;;;;;;;5006022;28;20057;-65
2023/08/28 01:51:19;;;;;;;3.75;1.90;;;;;;;;;;5006401;28;20102;-64
2023/08/28 01:53:44;;;;;;;4.93;1.85;;;;;;;;;;5004519;28;20125;-62
2023/08/28 01:56:09;;;;;;;4.82;2.15;;;;;;;;;;5006389;28;20026;-64
2023/08/28 01:58:40;;;;;;;6.73;1.90;;;;;;;;;;5005533;28;20040;-66
2023/08/28 02:01:05;;;;;;;3.60;1.95;;;;;;;;;;4997354;28;20267;-65
2023/08/28 02:03:31;;;;;;;6.00;2.10;;;;;;;;;;5003301;28;20041;-65
2023/08/28 02:05:56;;;;;;;6.63;2.05;;;;;;;;;;5006656;28;20076;-64
2023/08/28 02:08:21;;;;;;;3.70;1.80;;;;;;;;;;5004416;28;20026;-66
2023/08/28 02:10:47;;;;;;;5.60;2.05;;;;;;;;;;5006776;28;20014;-65
2023/08/28 02:13:12;;;;;;;6.20;2.15;;;;;;;;;;5006495;28;20364;-63
2023/08/28 02:15:38;;;;;;;8.55;2.00;;;;;;;;;;5007329;28;20169;-65
2023/08/28 02:18:03;;;;;;;4.15;2.10;;;;;;;;;;5005993;28;20391;-62
2023/08/28 02:20:29;;;;;;;4.10;2.00;;;;;;;;;;5005738;28;20109;-66
2023/08/28 02:22:54;;;;;;;5.15;1.58;;;;;;;;;;5005768;28;20061;-65
2023/08/28 02:25:22;;;;;;;5.40;2.30;;;;;;;;;;5002286;28;20443;-63
2023/08/28 02:27:48;;;;;;;3.50;1.95;;;;;;;;;;5007736;28;20447;-65
2023/08/28 02:30:13;;;;;;;3.30;1.90;;;;;;;;;;5009057;28;20034;-63
2023/08/28 02:32:39;;;;;;;7.38;2.17;;;;;;;;;;5007745;28;20018;-66
2023/08/28 02:35:04;;;;;;;3.90;2.08;;;;;;;;;;5009042;28;20099;-63
2023/08/28 02:37:29;;;;;;;4.68;2.00;;;;;;;;;;5008794;28;20021;-65
2023/08/28 02:39:54;;;;;;;4.60;2.13;;;;;;;;;;5008767;28;20033;-65
2023/08/28 02:42:20;;;;;;;4.60;1.85;;;;;;;;;;5009624;28;20061;-64
2023/08/28 02:44:45;;;;;;;6.47;2.20;;;;;;;;;;5010282;28;20383;-63
2023/08/28 02:47:10;;;;;;;6.28;2.28;;;;;;;;;;5008564;28;20813;-65
2023/08/28 02:49:35;;;;;;;4.13;1.90;;;;;;;;;;5010329;28;20018;-63
2023/08/28 02:52:01;;;;;;;5.80;2.38;;;;;;;;;;5009627;28;20224;-65
2023/08/28 02:54:26;;;;;;;3.60;1.70;;;;;;;;;;5008865;28;20030;-65
2023/08/28 02:56:51;;;;;;;4.78;2.13;;;;;;;;;;5009138;28;20463;-64
2023/08/28 02:59:16;;;;;;;7.10;2.20;;;;;;;;;;5009173;28;20459;-65
2023/08/28 03:01:42;;;;;;;5.10;2.42;;;;;;;;;;5008774;28;20542;-64
2023/08/28 03:04:07;;;;;;;3.13;1.85;;;;;;;;;;5006941;28;20053;-65
2023/08/28 03:06:35;;;;;;;3.65;1.92;;;;;;;;;;5008819;28;20042;-62
2023/08/28 03:09:01;;;;;;;4.20;2.10;;;;;;;;;;5008337;28;20503;-66
2023/08/28 03:11:26;;;;;;;4.10;2.20;;;;;;;;;;5008978;28;20125;-65
2023/08/28 03:13:51;;;;;;;6.97;2.40;;;;;;;;;;5009345;28;20048;-64
2023/08/28 03:16:17;;;;;;;4.80;2.25;;;;;;;;;;5009145;28;20036;-67
2023/08/28 03:18:42;;;;;;;4.65;2.30;;;;;;;;;;5008721;28;20025;-63
2023/08/28 03:21:07;;;;;;;6.30;2.10;;;;;;;;;;5008859;28;20017;-65
2023/08/28 03:23:32;;;;;;;4.65;2.53;;;;;;;;;;5007607;28;20041;-62
2023/08/28 03:25:57;;;;;;;5.45;1.90;;;;;;;;;;5007271;28;20105;-67
2023/08/28 03:28:23;;;;;;;14.38;2.60;;;;;;;;;;5009631;28;20111;-65
2023/08/28 03:30:48;;;;;;;8.43;2.40;;;;;;;;;;5008171;28;20155;-66
2023/08/28 03:33:13;;;;;;;5.30;1.98;;;;;;;;;;5008204;28;20021;-64
2023/08/28 03:35:38;;;;;;;2.90;1.52;;;;;;;;;;5009548;28;20049;-65
2023/08/28 03:38:04;;;;;;;5.82;2.35;;;;;;;;;;5009937;28;20026;-63
2023/08/28 03:40:29;;;;;;;5.75;2.60;;;;;;;;;;5008386;28;20495;-64
2023/08/28 03:42:54;;;;;;;4.50;2.40;;;;;;;;;;5009953;28;20024;-64
2023/08/28 03:45:19;;;;;;;5.72;2.08;;;;;;;;;;5008002;28;20021;-67
2023/08/28 03:47:45;;;;;;;3.83;2.08;;;;;;;;;;5007924;28;20502;-66
2023/08/28 03:50:10;;;;;;;5.45;2.42;;;;;;;;;;5009058;28;20041;-65
2023/08/28 03:52:35;;;;;;;5.85;1.60;;;;;;;;;;5001268;28;20029;-66
2023/08/28 03:55:00;;;;;;;4.43;2.60;;;;;;;;;;5005850;28;20034;-64
2023/08/28 03:57:25;;;;;;;5.80;2.20;;;;;;;;;;5007515;28;20025;-66
2023/08/28 03:59:51;;;;;;;8.95;2.42;;;;;;;;;;5003405;28;20471;-66
2023/08/28 04:02:16;;;;;;;13.80;2.47;;;;;;;;;;5002668;28;20045;-67
2023/08/28 04:04:42;;;;;;;4.43;2.35;;;;;;;;;;5003687;28;20018;-64
2023/08/28 04:07:07;;;;;;;4.82;2.25;;;;;;;;;;5009232;28;20023;-64
2023/08/28 04:09:32;;;;;;;6.25;2.75;;;;;;;;;;5009363;28;20455;-64
2023/08/28 04:11:57;;;;;;;4.32;2.38;;;;;;;;;;5009043;28;20100;-65
2023/08/28 04:14:23;;;;;;;7.00;2.97;;;;;;;;;;5004645;28;20114;-65
2023/08/28 04:16:49;;;;;;;6.07;2.50;;;;;;;;;;5009427;28;20388;-63
2023/08/28 04:19:14;;;;;;;11.93;3.08;;;;;;;;;;5008206;28;20033;-66
2023/08/28 04:21:40;;;;;;;5.65;2.55;;;;;;;;;;5008859;28;20040;-67
2023/08/28 04:24:05;;;;;;;6.15;2.80;;;;;;;;;;5005299;28;20391;-67
2023/08/28 04:26:30;;;;;;;6.28;2.97;;;;;;;;;;5007459;28;20029;-66
2023/08/28 04:28:56;;;;;;;6.95;2.70;;;;;;;;;;5005928;28;20691;-66
2023/08/28 04:31:21;;;;;;;6.82;2.90;;;;;;;;;;5003006;28;20033;-64
2023/08/28 04:33:46;;;;;;;5.88;2.80;;;;;;;;;;5006727;28;20112;-69
2023/08/28 04:36:12;;;;;;;5.45;2.35;;;;;;;;;;5008238;28;20030;-68
2023/08/28 04:38:37;;;;;;;9.23;3.17;;;;;;;;;;5007779;28;20022;-68
2023/08/28 04:41:03;;;;;;;5.90;2.22;;;;;;;;;;5007618;28;20088;-69
2023/08/28 04:43:28;;;;;;;6.53;2.47;;;;;;;;;;5006147;28;20038;-65
2023/08/28 04:45:53;;;;;;;4.68;2.40;;;;;;;;;;5008742;28;20502;-68
2023/08/28 04:48:18;;;;;;;5.45;2.38;;;;;;;;;;5007168;28;20021;-66
2023/08/28 04:50:44;;;;;;;4.35;2.20;;;;;;;;;;5003965;28;20026;-66
2023/08/28 04:53:09;;;;;;;3.90;1.90;;;;;;;;;;5001424;28;20022;-68
2023/08/28 04:55:35;;;;;;;9.30;2.60;;;;;;;;;;5006113;28;20017;-67
2023/08/28 04:58:01;;;;;;;7.70;2.75;;;;;;;;;;5004710;28;20037;-68
2023/08/28 05:00:27;;;;;;;5.63;2.03;;;;;;;;;;5007805;28;20018;-68
2023/08/28 05:02:52;;;;;;;5.78;2.08;;;;;;;;;;5005029;28;20835;-68
2023/08/28 05:05:17;;;;;;;6.07;2.35;;;;;;;;;;5005299;28;20026;-68
2023/08/28 05:07:43;;;;;;;7.97;2.30;;;;;;;;;;5008147;28;20580;-67
2023/08/28 05:10:08;;;;;;;9.05;2.70;;;;;;;;;;5008072;28;20022;-65
2023/08/28 05:12:33;;;;;;;8.15;2.92;;;;;;;;;;5006535;28;20037;-66
2023/08/28 05:14:58;;;;;;;5.93;2.88;;;;;;;;;;5007800;28;20533;-66
2023/08/28 05:17:24;;;;;;;6.60;3.75;;;;;;;;;;5006843;28;20470;-67
2023/08/28 05:19:49;;;;;;;5.32;3.05;;;;;;;;;;5006705;28;20029;-67
2023/08/28 05:22:14;;;;;;;8.30;2.80;;;;;;;;;;5006431;28;20040;-67
2023/08/28 05:24:40;;;;;;;7.80;2.85;;;;;;;;;;5003482;28;20148;-66
2023/08/28 05:27:05;;;;;;;8.50;3.70;;;;;;;;;;5005729;28;20034;-68
2023/08/28 05:29:30;;;;;;;6.18;2.50;;;;;;;;;;5005827;28;20100;-65
2023/08/28 05:31:55;;;;;;;7.05;3.53;;;;;;;;;;5005750;28;20236;-63
2023/08/28 05:34:21;;;;;;;6.57;2.50;;;;;;;;;;5004328;28;20161;-67
2023/08/28 05:36:46;;;;;;;7.18;2.78;;;;;;;;;;5006290;28;20219;-66
2023/08/28 05:39:11;;;;;;;9.00;3.00;;;;;;;;;;5007067;28;20022;-68
2023/08/28 05:41:36;;;;;;;6.22;3.15;;;;;;;;;;5005442;28;20028;-68
2023/08/28 05:44:02;;;;;;;17.67;3.88;;;;;;;;;;5005782;28;20108;-67
2023/08/28 05:46:27;;;;;;;11.45;3.42;;;;;;;;;;5008109;28;20025;-66
2023/08/28 05:48:52;;;;;;;7.35;3.10;;;;;;;;;;5006540;28;20030;-66
2023/08/28 05:51:17;;;;;;;8.15;3.72;;;;;;;;;;4999315;28;20022;-64
2023/08/28 05:53:42;;;;;;;5.80;3.13;;;;;;;;;;5006164;28;20022;-67
2023/08/28 05:56:08;;;;;;;5.80;3.10;;;;;;;;;;5007193;28;20138;-66
2023/08/28 05:58:34;;;;;;;7.30;3.13;;;;;;;;;;5007227;28;20018;-67
2023/08/28 06:00:59;;;;;;;6.50;3.22;;;;;;;;;;5008488;28;20559;-68
2023/08/28 06:03:24;;;;;;;9.93;3.10;;;;;;;;;;5008431;28;20439;-63
2023/08/28 06:05:50;;;;;;;8.68;3.15;;;;;;;;;;5011185;28;20625;-67
2023/08/28 06:08:15;;;;;;;10.57;3.00;;;;;;;;;;5011572;28;20034;-63
2023/08/28 06:10:42;;;;;;;8.63;2.78;;;;;;;;;;5010644;28;20018;-64
2023/08/28 06:13:07;;;;;;;6.80;2.78;;;;;;;;;;5011124;28;20030;-63
2023/08/28 06:15:33;;;;;;;6.10;2.60;;;;;;;;;;5009110;28;20579;-69
2023/08/28 06:17:58;;;;;;;5.82;2.60;;;;;;;;;;5009803;28;20033;-66
2023/08/28 06:20:23;;;;;;;5.10;2.58;;;;;;;;;;5011707;28;20034;-67
2023/08/28 06:22:48;;;;;;;5.32;2.70;;;;;;;;;;5007855;28;20041;-68
2023/08/28 06:25:14;;;;;;;10.38;2.50;;;;;;;;;;5008336;28;20022;-66
2023/08/28 06:27:39;;;;;;;7.03;2.63;;;;;;;;;;5010115;28;20118;-67
2023/08/28 06:30:05;;;;;;;6.05;2.72;;;;;;;;;;5008692;28;20037;-67
2023/08/28 06:32:31;;;;;;;6.45;2.65;;;;;;;;;;5007868;28;20026;-67
2023/08/28 06:34:56;;;;;;;5.72;2.47;;;;;;;;;;5008981;28;20100;-66
2023/08/28 06:37:21;;;;;;;5.20;2.30;;;;;;;;;;5008223;28;20079;-65
2023/08/28 06:39:47;;;;;;;9.50;2.47;;;;;;;;;;5019538;23;20135;-69
2023/08/28 06:42:12;;;;;;;5.63;2.42;;;;;;;;;;5001660;28;20475;-69
2023/08/28 06:44:37;;;;;;;3.97;2.25;;;;;;;;;;5001282;28;20547;-65
2023/08/28 06:47:03;;;;;;;4.70;2.17;;;;;;;;;;5001726;28;20022;-68
2023/08/28 06:49:28;;;;;;;4.50;1.98;;;;;;;;;;4990537;28;20113;-69
2023/08/28 06:51:53;;;;;;;6.10;2.45;;;;;;;;;;4990814;28;20477;-66
2023/08/28 06:54:18;;;;;;;4.80;1.92;;;;;;;;;;5019643;28;20026;-70
2023/08/28 06:56:44;;;;;;;10.38;2.90;;;;;;;;;;4999735;28;20050;-68
2023/08/28 06:59:09;;;;;;;6.57;2.47;;;;;;;;;;4992657;28;20022;-68
2023/08/28 07:01:34;;;;;;;4.10;2.20;;;;;;;;;;4993117;28;20438;-69
2023/08/28 07:03:59;;;;;;;4.80;2.05;;;;;;;;;;5004357;28;20636;-69
2023/08/28 07:06:25;;;;;;;7.78;2.40;;;;;;;;;;4992479;28;20703;-68
2023/08/28 07:08:50;;;;;;;3.80;1.92;;;;;;;;;;4991529;28;20491;-68
2023/08/28 07:11:15;;;;;;;8.35;2.65;;;;;;;;;;4995153;28;20381;-69
2023/08/28 07:13:40;;;;;;;9.85;2.70;;;;;;;;;;4991422;28;20598;-70
2023/08/28 07:16:06;;;;;;;5.63;2.00;;;;;;;;;;4991131;28;20022;-68
2023/08/28 07:18:31;;;;;;;4.65;2.25;;;;;;;;;;4993663;28;20479;-67
2023/08/28 07:20:57;;;;;;;5.18;2.30;;;;;;;;;;5003572;28;20587;-69
2023/08/28 07:23:23;;;;;;;7.60;2.60;;;;;;;;;;4991927;28;20384;-69
2023/08/28 07:25:48;;;;;;;12.05;2.33;;;;;;;;;;4984962;28;20373;-68
2023/08/28 07:28:13;;;;;;;7.78;2.40;;;;;;;;;;4991630;28;20030;-68
2023/08/28 07:30:39;;;;;;;7.13;2.40;;;;;;;;;;4992234;28;20372;-67
2023/08/28 07:33:05;;;;;;;5.18;2.05;;;;;;;;;;4990555;28;20096;-68
2023/08/28 07:35:34;;;;;;;4.03;2.13;;;;;;;;;;5004186;28;20081;-68
2023/08/28 07:38:02;;;;;;;6.28;2.20;;;;;;;;;;5004576;28;20109;-69
2023/08/28 07:40:27;;;;;;;5.20;2.42;;;;;;;;;;4993839;28;20022;-69
2023/08/28 07:42:52;;;;;;;6.68;2.10;;;;;;;;;;4999190;28;20028;-69
2023/08/28 07:45:17;;;;;;;5.20;2.25;;;;;;;;;;5011123;28;20022;-70
2023/08/28 07:47:43;;;;;;;4.32;2.30;;;;;;;;;;5014025;28;20109;-68
2023/08/28 07:50:08;;;;;;;8.40;2.80;;;;;;;;;;4996207;28;20098;-67
2023/08/28 07:52:33;;;;;;;5.25;2.42;;;;;;;;;;4992858;28;20050;-69
2023/08/28 07:54:58;;;;;;;5.13;2.42;;;;;;;;;;4991093;28;20027;-69
2023/08/28 07:57:24;;;;;;;8.15;2.47;;;;;;;;;;4995312;28;20046;-70
2023/08/28 07:59:49;;;;;;;4.88;2.60;;;;;;;;;;4991270;28;20093;-68
2023/08/28 08:02:14;;;;;;;6.35;2.80;;;;;;;;;;4991095;28;20101;-67
2023/08/28 08:04:40;;;;;;;5.32;2.53;;;;;;;;;;4988238;28;20038;-69
2023/08/28 08:07:05;;;;;;;6.88;2.50;;;;;;;;;;4989656;28;20114;-70
2023/08/28 08:09:30;;;;;;;7.63;2.10;;;;;;;;;;4990772;28;20101;-67
2023/08/28 08:11:55;;;;;;;5.60;2.90;;;;;;;;;;4990582;28;20080;-69
2023/08/28 08:14:21;;;;;;;7.38;3.05;;;;;;;;;;4990794;28;20456;-68
2023/08/28 08:16:46;;;;;;;6.57;3.45;;;;;;;;;;4991703;28;20117;-68
2023/08/28 08:19:11;;;;;;;6.00;2.83;;;;;;;;;;4989913;28;20081;-68
2023/08/28 08:21:36;;;;;;;12.63;2.63;;;;;;;;;;4992865;28;20027;-74
2023/08/28 08:24:02;;;;;;;5.18;2.60;;;;;;;;;;4985579;28;20250;-68
2023/08/28 08:26:28;;;;;;;5.15;2.58;;;;;;;;;;4995057;28;20512;-70
2023/08/28 08:28:53;;;;;;;6.38;2.70;;;;;;;;;;4997435;28;20034;-67
2023/08/28 08:31:18;;;;;;;7.05;2.60;;;;;;;;;;4989892;28;20079;-68
2023/08/28 08:33:44;;;;;;;4.43;2.55;;;;;;;;;;5001290;28;20081;-67
2023/08/28 08:36:13;;;;;;;6.03;2.63;;;;;;;;;;4990795;28;20271;-67
2023/08/28 08:38:39;;;;;;;5.50;2.67;;;;;;;;;;4976655;28;20065;-67
2023/08/28 08:41:04;;;;;;;4.40;2.30;;;;;;;;;;4994055;28;20049;-66
2023/08/28 08:43:29;;;;;;;5.00;2.70;;;;;;;;;;4992237;28;20019;-71
2023/08/28 08:45:58;;;;;;;6.80;3.00;;;;;;;;;;4990099;28;20523;-68
2023/08/28 08:48:25;;;;;;;6.68;2.95;;;;;;;;;;4993556;28;20029;-66
2023/08/28 08:50:52;;;;;;;6.55;2.75;;;;;;;;;;4996799;28;20377;-67
2023/08/28 08:53:24;;;;;;;6.10;3.05;;;;;;;;;;5004960;28;20154;-70
2023/08/28 08:55:53;;;;;;;5.22;2.42;;;;;;;;;;4990656;28;20722;-70
2023/08/28 08:58:18;;;;;;;;;;;;;;;;;;4991477;28;20027;-68
2023/08/28 09:00:43;;;;;;;12.07;2.85;;;;;;;;;;4990954;28;19906;-69
2023/08/28 09:03:09;;;;;;;11.00;1.98;;;;;;;;;;4990057;28;20021;-70
2023/08/28 09:05:35;;;;;;;4.20;2.10;;;;;;;;;;4989703;28;20018;-70
2023/08/28 09:08:01;;;;;;;6.65;2.90;;;;;;;;;;4991281;28;20029;-67
2023/08/28 09:10:26;;;;;;;3.97;2.20;;;;;;;;;;4990737;28;20061;-68
2023/08/28 09:12:51;;;;;;;6.15;2.15;;;;;;;;;;5003730;28;20620;-69
2023/08/28 09:15:18;;;;;;;5.30;2.10;;;;;;;;;;4989965;28;20542;-70
2023/08/28 09:17:43;;;;;;;4.90;2.63;;;;;;;;;;4989737;28;20029;-69
2023/08/28 09:20:13;;;;;;;6.32;2.40;;;;;;;;;;4989731;28;20026;-67
2023/08/28 09:22:38;;;;;;;12.48;2.67;;;;;;;;;;5003483;28;20025;-67
2023/08/28 09:25:03;;;;;;;7.22;2.55;;;;;;;;;;4987977;28;20022;-71
2023/08/28 09:27:29;;;;;;;5.10;2.55;;;;;;;;;;4993843;28;20034;-68
2023/08/28 09:29:54;;;;;;;4.55;2.30;;;;;;;;;;4989943;28;20436;-68
2023/08/28 09:32:26;;;;;;;4.78;2.20;;;;;;;;;;4988674;28;20376;-69
2023/08/28 09:34:51;;;;;;;5.38;1.90;;;;;;;;;;4989272;28;20023;-66
2023/08/28 09:37:16;;;;;;;5.30;2.00;;;;;;;;;;4990025;28;20026;-68
2023/08/28 09:39:53;;;;;;;9.15;2.67;;;;;;;;;;4990504;28;20055;-68
2023/08/28 09:42:18;;;;;;;6.70;2.50;;;;;;;;;;4983151;28;20026;-70
2023/08/28 09:44:48;;;;;;;4.07;2.42;;;;;;;;;;4989712;28;20038;-68
2023/08/28 09:47:19;;;;;;;5.40;2.60;;;;;;;;;;4998427;28;20629;-68
2023/08/28 09:49:44;;;;;;;7.80;2.67;;;;;;;;;;4994558;28;20035;-67
2023/08/28 09:52:10;;;;;;;9.00;2.78;;;;;;;;;;4988859;28;20050;-69
2023/08/28 09:54:35;;;;;;;6.28;2.25;;;;;;;;;;4988845;28;20062;-69
2023/08/28 09:57:00;;;;;;;7.03;2.65;;;;;;;;;;4992995;28;20026;-74
2023/08/28 09:59:27;;;;;;;6.95;2.10;;;;;;;;;;4990077;28;20073;-69
2023/08/28 10:01:52;;;;;;;8.50;1.75;;;;;;;;;;4988183;28;20504;-70
2023/08/28 10:04:19;;;;;;;6.90;1.38;;;;;;;;;;4987754;28;20102;-68
2023/08/28 10:06:53;;;;;;;4.40;1.83;;;;;;;;;;4989250;28;20026;-69
2023/08/28 10:09:19;;;;;;;7.55;2.08;;;;;;;;;;4989692;28;20431;-67
2023/08/28 10:11:45;;;;;;;3.45;1.65;;;;;;;;;;4993868;28;20072;-66
2023/08/28 10:14:11;;;;;;;5.65;1.70;;;;;;;;;;4995126;28;20041;-69
2023/08/28 10:16:38;;;;;;;9.15;2.00;;;;;;;;;;5000241;28;20634;-69
2023/08/28 10:19:15;;;;;;;5.53;2.33;;;;;;;;;;5002613;28;20041;-72
2023/08/28 10:21:41;;;;;;;2.92;1.75;;;;;;;;;;4989230;28;20476;-64
2023/08/28 10:24:07;;;;;;;6.10;2.10;;;;;;;;;;4988447;28;20015;-71
2023/08/28 10:26:33;;;;;;;3.70;1.25;;;;;;;;;;4989896;28;20082;-70
2023/08/28 10:28:58;;;;;;;5.95;1.77;;;;;;;;;;5009724;28;20030;-70
2023/08/28 10:31:24;;;;;;;2.97;1.45;;;;;;;;;;4997269;28;20023;-69
2023/08/28 10:33:50;;;;;;;3.78;1.67;;;;;;;;;;4988212;28;20022;-69
2023/08/28 10:36:15;;;;;;;4.13;1.50;;;;;;;;;;4989196;28;20102;-68
2023/08/28 10:38:42;;;;;;;2.85;1.45;;;;;;;;;;4989576;28;20726;-70
2023/08/28 10:41:07;;;;;;;5.53;1.73;;;;;;;;;;4989193;28;20109;-70
2023/08/28 10:43:33;;;;;;;5.07;1.50;;;;;;;;;;5001157;28;20109;-69
2023/08/28 10:46:00;;;;;;;4.13;1.25;;;;;;;;;;4990142;28;20138;-67
2023/08/28 10:48:25;;;;;;;7.22;1.85;;;;;;;;;;4992134;28;20029;-69
2023/08/28 10:50:55;;;;;;;3.47;1.60;;;;;;;;;;4992056;28;20470;-68
2023/08/28 10:53:20;;;;;;;3.33;1.40;;;;;;;;;;4991278;28;20058;-66
2023/08/28 10:56:02;;;;;;;3.75;1.40;;;;;;;;;;4983401;28;20500;-69
2023/08/28 10:58:30;;;;;;;3.90;1.15;;;;;;;;;;4996131;28;20034;-70
2023/08/28 11:01:13;;;;;;;6.95;1.20;;;;;;;;;;4999958;28;20018;-69
2023/08/28 11:03:50;;;;;;;1.63;1.02;;;;;;;;;;4993782;28;20026;-69
2023/08/28 11:06:34;;;;;;;3.17;1.20;;;;;;;;;;4982737;28;20734;-71
2023/08/28 11:09:19;;;;;;;8.00;1.70;;;;;;;;;;4992300;28;20025;-65
2023/08/28 11:11:44;;;;;;;4.85;1.50;;;;;;;;;;4992762;28;20021;-69
2023/08/28 11:14:13;;;;;;;5.13;1.90;;;;;;;;;;5001518;28;20022;-69
2023/08/28 11:16:39;;;;;;;3.70;1.40;;;;;;;;;;4991459;28;20022;-69
2023/08/28 11:19:05;;;;;;;5.90;2.10;;;;;;;;;;4991031;28;20015;-69
2023/08/28 11:21:38;;;;;;;3.92;2.42;;;;;;;;;;4991856;28;20101;-69
2023/08/28 11:24:15;;;;;;;7.80;1.90;;;;;;;;;;4992260;28;20505;-69
2023/08/28 11:26:42;;;;;;;3.22;1.45;;;;;;;;;;4992695;28;20567;-67
2023/08/28 11:29:24;;;;;;;4.38;1.65;;;;;;;;;;4985784;28;20019;-68
2023/08/28 11:31:49;;;;;;;7.10;1.85;;;;;;;;;;4987111;28;20515;-68
2023/08/28 11:34:15;;;;;;;4.53;1.75;;;;;;;;;;4984523;28;20018;-67
2023/08/28 11:36:40;;;;;;;3.38;1.80;;;;;;;;;;4984651;28;20125;-68
2023/08/28 11:39:05;;;;;;;2.78;1.40;;;;;;;;;;4983159;28;20093;-72
2023/08/28 11:41:31;;;;;;;5.13;1.80;;;;;;;;;;4985260;28;20065;-68
2023/08/28 11:43:56;;;;;;;4.90;1.55;;;;;;;;;;4986108;28;20528;-66
2023/08/28 11:46:24;;;;;;;3.70;1.98;;;;;;;;;;4984555;28;20029;-66
2023/08/28 11:48:49;;;;;;;4.87;1.60;;;;;;;;;;4983854;28;20034;-69
2023/08/28 11:51:14;;;;;;;3.78;1.52;;;;;;;;;;4986312;28;20108;-68
2023/08/28 11:53:41;;;;;;;3.20;1.38;;;;;;;;;;4983734;28;20106;-67
2023/08/28 11:56:07;;;;;;;7.78;1.60;;;;;;;;;;4982814;28;20034;-70
2023/08/28 11:58:33;;;;;;;4.85;1.85;;;;;;;;;;4981722;28;20109;-71
2023/08/28 12:01:05;;;;;;;4.85;1.67;;;;;;;;;;4984899;28;20106;-69
2023/08/28 12:03:31;;;;;;;9.32;1.70;;;;;;;;;;4984060;28;20522;-67
2023/08/28 12:06:00;;;;;;;6.43;1.40;;;;;;;;;;4984831;28;20034;-65
2023/08/28 12:08:25;;;;;;;2.45;1.30;;;;;;;;;;4985359;28;20117;-68
2023/08/28 12:10:50;;;;;;;6.53;1.25;;;;;;;;;;4982988;28;20109;-69
2023/08/28 12:13:19;;;;;;;3.95;1.55;;;;;;;;;;4983108;28;20042;-67
2023/08/28 12:15:44;;;;;;;2.13;1.20;;;;;;;;;;4984073;28;20037;-66
2023/08/28 12:18:09;;;;;;;6.78;1.98;;;;;;;;;;4982930;28;20018;-67
2023/08/28 12:20:35;;;;;;;4.40;1.75;;;;;;;;;;4983672;28;20019;-68
2023/08/28 12:23:01;;;;;;;12.88;2.30;;;;;;;;;;4983559;28;20516;-68
2023/08/28 12:25:34;;;;;;;3.17;1.85;;;;;;;;;;4982689;28;20057;-68
2023/08/28 12:28:03;;;;;;;26.02;3.08;;;;;;;;;;4980073;28;20755;-68
2023/08/28 12:30:28;;;;;;;8.25;1.88;;;;;;;;;;4980854;28;20092;-65
2023/08/28 12:32:54;;;;;;;3.53;1.52;;;;;;;;;;4981781;28;20026;-66
2023/08/28 12:35:21;;;;;;;4.55;1.63;;;;;;;;;;4989749;28;20038;-67
2023/08/28 12:37:51;;;;;;;5.05;1.60;;;;;;;;;;4989407;28;20026;-69
2023/08/28 12:40:16;;;;;;;3.15;1.52;;;;;;;;;;5015623;23;20040;-69
2023/08/28 12:42:41;;;;;;;6.88;1.45;;;;;;;;;;5007163;28;20025;-67
2023/08/28 12:45:07;;;;;;;4.22;1.40;;;;;;;;;;5007219;28;20022;-69
2023/08/28 12:47:32;;;;;;;5.90;1.58;;;;;;;;;;5007945;28;20030;-68
2023/08/28 12:49:57;;;;;;;5.03;1.83;;;;;;;;;;5008632;28;20025;-66
2023/08/28 12:52:23;;;;;;;6.90;2.17;;;;;;;;;;5008333;28;20024;-66
2023/08/28 12:54:48;;;;;;;7.47;1.83;;;;;;;;;;5006582;28;20083;-67
2023/08/28 12:57:14;;;;;;;5.80;2.22;;;;;;;;;;5006907;28;20042;-66
2023/08/28 12:59:39;;;;;;;6.35;1.90;;;;;;;;;;5007353;28;20105;-67
2023/08/28 13:02:04;;;;;;;3.80;1.58;;;;;;;;;;5007368;28;20400;-67
2023/08/28 13:04:30;;;;;;;8.30;2.88;;;;;;;;;;5006711;28;20071;-67
2023/08/28 13:06:55;;;;;;;7.10;1.88;;;;;;;;;;5007507;28;20018;-66
2023/08/28 13:09:21;;;;;;;4.82;1.98;;;;;;;;;;5005832;28;20033;-67
2023/08/28 13:11:47;;;;;;;4.97;2.45;;;;;;;;;;5007699;28;20656;-65
2023/08/28 13:14:12;;;;;;;6.28;2.25;;;;;;;;;;5006476;28;20033;-68
2023/08/28 13:16:38;;;;;;;4.40;2.10;;;;;;;;;;5009447;28;20178;-67
2023/08/28 13:19:04;;;;;;;3.97;2.22;;;;;;;;;;5007325;28;20018;-65
2023/08/28 13:21:30;;;;;;;3.83;2.00;;;;;;;;;;5007585;28;20059;-67
2023/08/28 13:23:55;;;;;;;6.68;2.00;;;;;;;;;;5004919;28;20015;-67
2023/08/28 13:26:21;;;;;;;7.78;2.10;;;;;;;;;;5005588;28;20045;-68
2023/08/28 13:28:46;;;;;;;3.00;1.70;;;;;;;;;;5007826;28;20018;-67
2023/08/28 13:31:11;;;;;;;7.82;1.85;;;;;;;;;;5003929;28;20041;-67
2023/08/28 13:33:37;;;;;;;3.67;1.40;;;;;;;;;;5005540;28;20105;-67
2023/08/28 13:36:04;;;;;;;10.77;1.50;;;;;;;;;;5007375;28;20069;-64
2023/08/28 13:38:30;;;;;;;4.30;1.40;;;;;;;;;;5008002;28;20047;-64
2023/08/28 13:40:57;;;;;;;5.35;2.00;;;;;;;;;;5000270;28;20025;-65
2023/08/28 13:43:22;;;;;;;6.10;1.40;;;;;;;;;;5001319;28;20524;-64
2023/08/28 13:45:50;;;;;;;8.10;1.33;;;;;;;;;;5001279;28;20044;-66
2023/08/28 13:48:15;;;;;;;6.22;1.95;;;;;;;;;;5020453;28;20048;-66
2023/08/28 13:50:42;;;;;;;7.97;1.58;;;;;;;;;;5007720;28;20021;-67
2023/08/28 13:53:08;;;;;;;3.90;1.63;;;;;;;;;;5007804;28;20030;-67
2023/08/28 13:55:33;;;;;;;7.80;1.40;;;;;;;;;;5007203;28;20109;-65
2023/08/28 13:57:58;;;;;;;4.20;0.90;;;;;;;;;;5002459;28;20065;-65
2023/08/28 14:00:24;;;;;;;3.90;1.30;;;;;;;;;;5007131;28;20056;-67
2023/08/28 14:02:49;;;;;;;6.65;1.15;;;;;;;;;;5005768;28;20093;-65
2023/08/28 14:05:14;;;;;;;2.13;0.90;;;;;;;;;;5006401;28;20157;-66
2023/08/28 14:07:40;;;;;;;6.30;1.40;;;;;;;;;;5007063;28;20171;-67
2023/08/28 14:10:06;;;;;;;2.58;1.10;;;;;;;;;;4999387;28;20032;-67
2023/08/28 14:12:31;;;;;;;3.58;1.08;;;;;;;;;;5004385;28;20029;-66
2023/08/28 14:14:59;;;;;;;3.95;1.40;;;;;;;;;;5000088;28;20022;-69
2023/08/28 14:17:25;;;;;;;5.43;1.17;;;;;;;;;;5006306;28;20059;-66
2023/08/28 14:19:51;;;;;;;2.60;1.10;;;;;;;;;;5007459;28;20087;-68
2023/08/28 14:22:16;;;;;;;4.28;0.98;;;;;;;;;;5005969;28;20444;-65
2023/08/28 14:24:41;;;;;;;4.95;1.02;;;;;;;;;;5009431;28;20029;-64
2023/08/28 14:27:07;;;;;;;2.05;1.00;;;;;;;;;;5007162;28;20475;-68
2023/08/28 14:29:33;;;;;;;3.35;1.50;;;;;;;;;;5010569;28;20046;-67
2023/08/28 14:31:58;;;;;;;3.90;1.40;;;;;;;;;;4999993;28;20074;-66
2023/08/28 14:34:23;;;;;;;3.30;1.17;;;;;;;;;;5004543;28;20030;-67
2023/08/28 14:36:48;;;;;;;5.28;1.55;;;;;;;;;;5009802;28;20068;-68